Time;durP1;ratioP1;P1;durP2;ratioP2;P2;SDS_P1;SDS_P2;PMS_P1;PMS_P2;Temp;Humidity;BMP_temperature;BMP_pressure;BME280_temperature;BME280_humidity;BME280_pressure;Samples;Min_cycle;Max_cycle;Signal;HPM_P1;HPM_P2
2022/04/05 00:01:00;;;;;;;21.20;10.65;;;;;;;;;;10474027;28;20029;-71
2022/04/05 00:06:00;;;;;;;13.00;9.20;;;;;;;;;;10492129;28;20027;-73
2022/04/05 00:11:00;;;;;;;16.17;10.10;;;;;;;;;;10474090;28;20414;-76
2022/04/05 00:16:01;;;;;;;21.20;9.82;;;;;;;;;;10474230;28;20535;-78
2022/04/05 00:21:01;;;;;;;20.30;10.55;;;;;;;;;;10473521;28;20530;-78
2022/04/05 00:26:01;;;;;;;15.63;9.48;;;;;;;;;;10473119;28;20028;-71
2022/04/05 00:31:01;;;;;;;18.63;9.77;;;;;;;;;;10490925;28;20119;-77
2022/04/05 00:36:02;;;;;;;14.88;9.38;;;;;;;;;;10472626;28;20040;-72
2022/04/05 00:41:02;;;;;;;22.47;10.73;;;;;;;;;;10472788;28;20025;-70
2022/04/05 00:46:03;;;;;;;20.07;11.40;;;;;;;;;;10490274;28;20045;-74
2022/04/05 00:51:03;;;;;;;16.83;10.13;;;;;;;;;;10472094;28;20128;-71
2022/04/05 00:56:05;;;;;;;18.40;9.65;;;;;;;;;;10471900;28;20020;-75
2022/04/05 01:01:07;;;;;;;19.55;9.10;;;;;;;;;;10471727;28;20025;-71
2022/04/05 01:06:07;;;;;;;21.58;10.57;;;;;;;;;;10471482;28;20099;-72
2022/04/05 01:11:08;;;;;;;16.35;9.75;;;;;;;;;;10455251;28;20574;-74
2022/04/05 01:16:10;;;;;;;18.20;9.40;;;;;;;;;;10471141;28;20063;-70
2022/04/05 01:21:10;;;;;;;20.92;11.30;;;;;;;;;;10470783;28;20027;-74
2022/04/05 01:26:10;;;;;;;14.37;9.13;;;;;;;;;;10470814;28;20024;-70
2022/04/05 01:31:10;;;;;;;15.93;9.15;;;;;;;;;;10470872;28;20020;-70
2022/04/05 01:36:21;;;;;;;18.88;9.93;;;;;;;;;;10469947;28;20043;-71
2022/04/05 01:41:22;;;;;;;19.25;9.35;;;;;;;;;;10471075;28;20486;-75
2022/04/05 01:46:22;;;;;;;19.30;9.45;;;;;;;;;;10488135;28;20045;-71
2022/04/05 01:51:22;;;;;;;20.38;9.95;;;;;;;;;;10470572;28;20422;-70
2022/04/05 01:56:23;;;;;;;15.30;9.68;;;;;;;;;;10488467;28;20036;-73
2022/04/05 02:01:23;;;;;;;15.60;9.85;;;;;;;;;;10470355;28;20029;-75
2022/04/05 02:06:24;;;;;;;14.73;8.82;;;;;;;;;;10470264;28;20507;-71
2022/04/05 02:11:24;;;;;;;15.00;9.80;;;;;;;;;;10453645;28;20126;-76
2022/04/05 02:16:26;;;;;;;15.85;8.20;;;;;;;;;;10469884;28;20032;-71
2022/04/05 02:21:26;;;;;;;13.38;9.07;;;;;;;;;;10469732;28;20078;-71
2022/04/05 02:26:26;;;;;;;14.73;8.60;;;;;;;;;;10470137;28;20040;-75
2022/04/05 02:31:27;;;;;;;16.83;8.48;;;;;;;;;;10469529;28;20470;-71
2022/04/05 02:36:27;;;;;;;12.18;7.15;;;;;;;;;;10469435;28;20051;-73
2022/04/05 02:41:27;;;;;;;16.98;8.85;;;;;;;;;;10469614;28;20024;-72
2022/04/05 02:46:28;;;;;;;18.83;8.33;;;;;;;;;;10469234;28;20048;-75
2022/04/05 02:51:28;;;;;;;12.57;7.53;;;;;;;;;;10493366;28;20267;-75
2022/04/05 02:56:28;;;;;;;13.13;7.93;;;;;;;;;;10476836;28;20071;-71
2022/04/05 03:01:28;;;;;;;20.00;7.22;;;;;;;;;;10477290;28;20059;-75
2022/04/05 03:06:29;;;;;;;18.67;7.65;;;;;;;;;;10476449;28;20024;-72
2022/04/05 03:11:29;;;;;;;14.30;7.68;;;;;;;;;;10476576;28;20077;-71
2022/04/05 03:16:30;;;;;;;14.48;8.15;;;;;;;;;;10476037;28;20417;-68
2022/04/05 03:21:30;;;;;;;14.63;8.67;;;;;;;;;;10476006;28;20028;-70
2022/04/05 03:26:30;;;;;;;15.13;9.07;;;;;;;;;;10475720;28;20111;-76
2022/04/05 03:31:31;;;;;;;10.53;7.73;;;;;;;;;;10475637;28;20020;-70
2022/04/05 03:36:31;;;;;;;12.70;8.23;;;;;;;;;;10475188;28;20259;-70
2022/04/05 03:41:31;;;;;;;12.57;7.43;;;;;;;;;;10492830;28;20082;-74
2022/04/05 03:46:32;;;;;;;13.75;9.02;;;;;;;;;;10493251;28;20113;-74
2022/04/05 03:51:32;;;;;;;16.15;9.25;;;;;;;;;;10493584;28;20036;-71
2022/04/05 03:56:32;;;;;;;15.77;8.85;;;;;;;;;;10474467;28;20028;-72
2022/04/05 04:01:33;;;;;;;18.13;7.77;;;;;;;;;;10473761;28;20406;-72
2022/04/05 04:06:33;;;;;;;9.25;6.28;;;;;;;;;;10474177;28;20274;-70
2022/04/05 04:11:33;;;;;;;11.13;6.47;;;;;;;;;;10474870;28;20111;-78
2022/04/05 04:16:34;;;;;;;10.18;6.55;;;;;;;;;;10478511;28;20028;-75
2022/04/05 04:21:34;;;;;;;9.52;7.43;;;;;;;;;;10476300;28;20016;-70
2022/04/05 04:26:34;;;;;;;12.70;8.20;;;;;;;;;;10473881;28;20039;-70
2022/04/05 04:31:36;;;;;;;10.53;7.73;;;;;;;;;;10501349;28;20086;-71
2022/04/05 04:36:37;;;;;;;13.65;7.82;;;;;;;;;;10532074;28;20055;-73
2022/04/05 04:41:37;;;;;;;12.53;7.50;;;;;;;;;;10504992;28;20135;-79
2022/04/05 04:46:37;;;;;;;18.15;9.27;;;;;;;;;;10499620;28;20045;-72
2022/04/05 04:51:38;;;;;;;17.83;10.40;;;;;;;;;;10500136;28;20024;-70
2022/04/05 04:56:38;;;;;;;30.50;13.45;;;;;;;;;;10513939;28;20089;-73
2022/04/05 05:01:38;;;;;;;23.77;12.38;;;;;;;;;;10513159;28;20112;-75
2022/04/05 05:06:38;;;;;;;39.03;12.88;;;;;;;;;;10513181;28;20421;-72
2022/04/05 05:11:39;;;;;;;23.20;11.90;;;;;;;;;;10492659;28;20024;-72
2022/04/05 05:16:39;;;;;;;20.50;10.63;;;;;;;;;;10470738;28;20093;-75
2022/04/05 05:21:39;;;;;;;23.52;11.95;;;;;;;;;;10470737;28;20029;-71
2022/04/05 05:26:40;;;;;;;32.53;11.18;;;;;;;;;;10471072;28;20120;-72
2022/04/05 05:31:40;;;;;;;16.60;10.10;;;;;;;;;;10470737;28;20021;-72
2022/04/05 05:36:40;;;;;;;18.37;9.83;;;;;;;;;;10470145;28;20024;-72
2022/04/05 05:41:41;;;;;;;16.73;9.13;;;;;;;;;;10470098;28;20009;-70
2022/04/05 05:46:41;;;;;;;22.80;10.53;;;;;;;;;;10469645;28;20534;-78
2022/04/05 05:51:41;;;;;;;17.17;9.30;;;;;;;;;;10469621;28;20107;-72
2022/04/05 05:56:42;;;;;;;12.73;8.00;;;;;;;;;;10469626;28;20379;-71
2022/04/05 06:01:42;;;;;;;14.02;7.80;;;;;;;;;;10469820;28;20036;-73
2022/04/05 06:06:42;;;;;;;13.68;7.18;;;;;;;;;;10469822;28;20097;-71
2022/04/05 06:11:42;;;;;;;17.02;8.38;;;;;;;;;;10487360;28;20032;-74
2022/04/05 06:16:43;;;;;;;17.05;8.75;;;;;;;;;;10469938;28;20516;-78
2022/04/05 06:21:43;;;;;;;19.05;7.07;;;;;;;;;;10469951;28;20021;-72
2022/04/05 06:26:43;;;;;;;12.38;7.18;;;;;;;;;;10477408;28;20028;-72
2022/04/05 06:31:44;;;;;;;19.73;8.38;;;;;;;;;;10477392;28;20029;-71
2022/04/05 06:36:44;;;;;;;19.70;8.43;;;;;;;;;;10494161;28;20475;-75
2022/04/05 06:41:44;;;;;;;14.75;7.47;;;;;;;;;;10476829;28;20441;-73
2022/04/05 06:46:45;;;;;;;12.45;7.82;;;;;;;;;;10476932;28;20438;-71
2022/04/05 06:51:45;;;;;;;19.80;8.13;;;;;;;;;;10476979;28;20056;-72
2022/04/05 06:56:45;;;;;;;19.27;8.27;;;;;;;;;;10476935;28;20020;-72
2022/04/05 07:01:46;;;;;;;14.00;7.68;;;;;;;;;;10476434;28;20123;-72
2022/04/05 07:06:46;;;;;;;19.35;8.82;;;;;;;;;;10494493;28;20023;-73
2022/04/05 07:11:46;;;;;;;15.82;8.07;;;;;;;;;;10476248;28;20098;-71
2022/04/05 07:16:47;;;;;;;15.93;8.52;;;;;;;;;;10493484;28;20032;-72
2022/04/05 07:21:47;;;;;;;13.83;6.93;;;;;;;;;;10494498;28;20051;-71
2022/04/05 07:26:47;;;;;;;13.75;5.85;;;;;;;;;;10475157;28;20023;-73
2022/04/05 07:31:47;;;;;;;9.93;6.25;;;;;;;;;;10474905;28;20054;-72
2022/04/05 07:36:48;;;;;;;11.95;5.82;;;;;;;;;;10473886;28;20031;-72
2022/04/05 07:41:48;;;;;;;9.63;4.90;;;;;;;;;;10475054;28;20525;-76
2022/04/05 07:46:49;;;;;;;7.40;4.53;;;;;;;;;;10532359;28;20058;-73
2022/04/05 07:51:49;;;;;;;10.93;5.70;;;;;;;;;;10533709;28;20062;-72
2022/04/05 07:56:49;;;;;;;9.23;5.80;;;;;;;;;;10515131;28;20123;-72
2022/04/05 08:01:49;;;;;;;14.70;5.77;;;;;;;;;;10516011;28;20446;-71
2022/04/05 08:06:50;;;;;;;9.40;4.82;;;;;;;;;;10515291;28;20460;-71
2022/04/05 08:11:50;;;;;;;8.27;4.57;;;;;;;;;;10515489;28;20043;-72
2022/04/05 08:16:50;;;;;;;11.10;3.83;;;;;;;;;;10533772;28;20025;-71
2022/04/05 08:21:51;;;;;;;7.47;4.97;;;;;;;;;;10514881;28;20482;-77
2022/04/05 08:26:51;;;;;;;11.87;6.07;;;;;;;;;;10514896;28;20020;-72
2022/04/05 08:31:51;;;;;;;17.17;7.17;;;;;;;;;;10514577;28;20153;-77
2022/04/05 08:36:53;;;;;;;11.85;6.45;;;;;;;;;;10514264;28;20067;-74
2022/04/05 08:41:55;;;;;;;11.73;5.75;;;;;;;;;;10513746;28;20024;-72
2022/04/05 08:46:55;;;;;;;8.35;4.78;;;;;;;;;;10513434;28;20051;-72
2022/04/05 08:51:56;;;;;;;6.80;4.20;;;;;;;;;;10513239;28;20024;-70
2022/04/05 08:56:56;;;;;;;7.20;4.10;;;;;;;;;;10513277;28;20254;-72
2022/04/05 09:01:56;;;;;;;14.65;5.97;;;;;;;;;;10531336;28;20020;-71
2022/04/05 09:06:57;;;;;;;8.55;5.63;;;;;;;;;;10531226;28;20039;-73
2022/04/05 09:11:59;;;;;;;12.27;6.03;;;;;;;;;;10512670;28;20016;-72
2022/04/05 09:17:10;;;;;;;12.60;5.07;;;;;;;;;;10530741;28;20039;-72
2022/04/05 09:22:10;;;;;;;7.90;4.45;;;;;;;;;;10512587;28;20042;-76
2022/04/05 09:27:10;;;;;;;7.73;4.97;;;;;;;;;;10530616;28;20020;-73
2022/04/05 09:32:30;;;;;;;5.35;3.45;;;;;;;;;;10511993;28;20024;-71
2022/04/05 09:37:30;;;;;;;8.98;4.13;;;;;;;;;;10511599;28;20020;-71
2022/04/05 09:42:31;;;;;;;6.47;3.40;;;;;;;;;;10530501;28;20043;-73
2022/04/05 09:47:32;;;;;;;6.43;3.38;;;;;;;;;;10511698;28;20054;-74
2022/04/05 09:52:33;;;;;;;4.97;3.00;;;;;;;;;;10511064;28;20111;-72
2022/04/05 09:57:34;;;;;;;9.38;3.33;;;;;;;;;;10510857;28;20020;-72
2022/04/05 10:02:34;;;;;;;4.37;2.47;;;;;;;;;;10511316;28;20020;-72
2022/04/05 10:07:35;;;;;;;7.67;3.30;;;;;;;;;;10511171;28;20023;-71
2022/04/05 10:12:36;;;;;;;7.90;2.25;;;;;;;;;;10510905;28;20020;-72
2022/04/05 10:17:38;;;;;;;5.15;2.45;;;;;;;;;;10510915;28;20020;-72
2022/04/05 10:22:39;;;;;;;4.20;3.15;;;;;;;;;;10510633;28;20016;-72
2022/04/05 10:27:40;;;;;;;4.75;2.58;;;;;;;;;;10528909;28;20024;-71
2022/04/05 10:32:46;;;;;;;6.70;2.50;;;;;;;;;;10511854;28;20443;-76
2022/04/05 10:37:46;;;;;;;6.78;2.30;;;;;;;;;;10510648;28;20020;-78
2022/04/05 10:42:48;;;;;;;4.67;2.90;;;;;;;;;;10510426;28;20021;-72
2022/04/05 10:47:55;;;;;;;3.88;2.38;;;;;;;;;;10510117;28;20108;-73
2022/04/05 10:53:14;;;;;;;5.38;2.40;;;;;;;;;;10493584;28;20442;-72
2022/04/05 10:58:15;;;;;;;4.18;2.45;;;;;;;;;;10510265;28;20039;-71
2022/04/05 11:03:15;;;;;;;3.83;2.75;;;;;;;;;;10510824;28;20592;-73
2022/04/05 11:08:16;;;;;;;5.82;3.33;;;;;;;;;;10510364;28;20067;-72
2022/04/05 11:13:16;;;;;;;4.53;3.38;;;;;;;;;;10516983;28;20347;-71
2022/04/05 11:18:18;;;;;;;11.07;4.00;;;;;;;;;;10517280;28;20043;-71
2022/04/05 11:23:19;;;;;;;8.18;3.65;;;;;;;;;;10535288;28;20016;-71
2022/04/05 11:28:21;;;;;;;7.57;4.63;;;;;;;;;;10499832;28;20020;-71
2022/04/05 11:33:21;;;;;;;5.18;3.35;;;;;;;;;;10516992;28;20237;-71
2022/04/05 11:38:26;;;;;;;10.20;3.93;;;;;;;;;;10516277;28;20089;-70
2022/04/05 11:43:28;;;;;;;8.77;3.78;;;;;;;;;;10534234;28;20115;-69
2022/04/05 11:48:28;;;;;;;10.38;4.30;;;;;;;;;;10533975;28;20490;-72
2022/04/05 11:53:29;;;;;;;6.75;4.00;;;;;;;;;;10515288;28;20024;-71
2022/04/05 11:58:32;;;;;;;7.38;3.25;;;;;;;;;;10498939;28;20111;-79
2022/04/05 12:03:45;;;;;;;6.72;3.80;;;;;;;;;;10533910;28;20425;-72
2022/04/05 12:08:46;;;;;;;8.75;3.70;;;;;;;;;;10515489;28;20436;-73
2022/04/05 12:13:55;;;;;;;8.65;4.55;;;;;;;;;;10498414;28;20073;-73
2022/04/05 12:18:57;;;;;;;10.88;4.20;;;;;;;;;;10533294;28;20024;-76
2022/04/05 12:23:57;;;;;;;8.45;4.60;;;;;;;;;;10513750;28;20020;-72
2022/04/05 12:28:59;;;;;;;13.70;4.13;;;;;;;;;;10533296;28;20028;-71
2022/04/05 12:34:11;;;;;;;9.32;3.80;;;;;;;;;;10514867;28;20028;-74
2022/04/05 12:39:20;;;;;;;6.18;3.22;;;;;;;;;;10532205;28;20055;-73
2022/04/05 12:44:21;;;;;;;5.95;3.13;;;;;;;;;;10531926;28;20123;-77
2022/04/05 12:49:34;;;;;;;6.43;3.35;;;;;;;;;;10514093;28;20115;-72
2022/04/05 12:54:35;;;;;;;11.65;4.00;;;;;;;;;;10513767;28;20375;-73
2022/04/05 12:59:36;;;;;;;12.23;3.47;;;;;;;;;;10496891;28;20022;-71
2022/04/05 13:04:36;;;;;;;6.97;4.50;;;;;;;;;;10462762;28;20554;-71
2022/04/05 13:09:37;;;;;;;8.95;3.92;;;;;;;;;;10473275;28;20115;-75
2022/04/05 13:14:38;;;;;;;5.65;3.15;;;;;;;;;;10486116;28;20054;-72
2022/04/05 13:19:39;;;;;;;4.95;2.78;;;;;;;;;;10471886;28;20036;-74
2022/04/05 13:24:41;;;;;;;4.63;2.90;;;;;;;;;;10504309;28;20024;-72
2022/04/05 13:29:43;;;;;;;5.50;2.97;;;;;;;;;;10511936;28;20442;-71
2022/04/05 13:34:46;;;;;;;7.90;3.15;;;;;;;;;;10511149;28;20055;-71
2022/04/05 13:39:50;;;;;;;4.70;2.88;;;;;;;;;;10511759;28;20076;-75
2022/04/05 13:44:50;;;;;;;4.20;2.00;;;;;;;;;;10511046;28;20048;-72
2022/04/05 13:49:51;;;;;;;2.20;1.40;;;;;;;;;;10510922;28;20027;-71
2022/04/05 13:54:51;;;;;;;5.50;1.63;;;;;;;;;;10503220;28;20029;-70
2022/04/05 13:59:51;;;;;;;5.00;1.93;;;;;;;;;;10470313;28;20044;-71
2022/04/05 14:04:52;;;;;;;5.00;1.40;;;;;;;;;;10487711;28;20024;-71
2022/04/05 14:09:52;;;;;;;2.33;1.63;;;;;;;;;;10469690;28;20267;-71
2022/04/05 14:14:52;;;;;;;5.40;2.10;;;;;;;;;;10469738;28;20047;-75
2022/04/05 14:19:53;;;;;;;1.98;1.60;;;;;;;;;;10468924;28;20105;-73
2022/04/05 14:24:53;;;;;;;6.88;2.42;;;;;;;;;;10494348;28;20481;-75
2022/04/05 14:29:53;;;;;;;3.20;2.13;;;;;;;;;;10510210;28;20035;-71
2022/04/05 14:34:54;;;;;;;4.43;2.05;;;;;;;;;;10509727;28;20028;-69
2022/04/05 14:39:54;;;;;;;3.60;2.25;;;;;;;;;;10509997;28;20104;-74
2022/04/05 14:44:54;;;;;;;5.28;2.10;;;;;;;;;;10514174;28;20539;-74
2022/04/05 14:49:55;;;;;;;7.07;1.77;;;;;;;;;;10518131;28;20028;-76
2022/04/05 14:54:55;;;;;;;4.40;2.72;;;;;;;;;;10518252;28;20398;-71
2022/04/05 14:59:55;;;;;;;8.60;1.67;;;;;;;;;;10517867;28;20470;-73
2022/04/05 15:04:56;;;;;;;3.83;3.03;;;;;;;;;;10481886;28;20025;-74
2022/04/05 15:09:56;;;;;;;2.40;2.10;;;;;;;;;;10475474;28;20024;-70
2022/04/05 15:14:56;;;;;;;9.57;3.20;;;;;;;;;;10475442;28;20312;-73
2022/04/05 15:19:57;;;;;;;10.70;2.80;;;;;;;;;;10493261;28;20383;-70
2022/04/05 15:24:57;;;;;;;4.82;2.05;;;;;;;;;;10475192;28;20820;-76
2022/04/05 15:29:57;;;;;;;2.80;1.85;;;;;;;;;;10474679;28;20490;-71
2022/04/05 15:34:58;;;;;;;3.53;2.30;;;;;;;;;;10474974;28;20035;-76
2022/04/05 15:39:58;;;;;;;4.75;2.00;;;;;;;;;;10512809;28;20672;-71
2022/04/05 15:44:58;;;;;;;2.35;1.58;;;;;;;;;;10534011;28;20116;-70
2022/04/05 15:49:59;;;;;;;5.30;2.42;;;;;;;;;;10515984;28;20493;-70
2022/04/05 15:54:59;;;;;;;3.80;2.00;;;;;;;;;;10494092;28;20442;-71
2022/04/05 16:00:00;;;;;;;3.77;2.70;;;;;;;;;;10473806;28;20016;-75
2022/04/05 16:05:00;;;;;;;6.32;2.20;;;;;;;;;;10473835;28;20103;-71
2022/04/05 16:10:01;;;;;;;3.60;2.25;;;;;;;;;;10473844;28;20016;-71
2022/04/05 16:15:04;;;;;;;2.53;1.83;;;;;;;;;;10498448;28;20028;-77
2022/04/05 16:20:05;;;;;;;5.15;2.30;;;;;;;;;;10514556;28;20108;-71
2022/04/05 16:25:06;;;;;;;162.68;53.17;;;;;;;;;;10474645;28;20106;-77
2022/04/05 16:30:07;;;;;;;295.48;92.72;;;;;;;;;;10472668;28;20027;-72
2022/04/05 16:35:07;;;;;;;15.60;5.88;;;;;;;;;;10518843;28;20012;-71
2022/04/05 16:40:11;;;;;;;5.15;2.58;;;;;;;;;;10512490;28;20025;-76
2022/04/05 16:45:13;;;;;;;3.60;2.40;;;;;;;;;;10471947;28;20076;-71
2022/04/05 16:50:13;;;;;;;31.30;12.02;;;;;;;;;;10455597;28;22107;-71
2022/04/05 16:55:13;;;;;;;11.45;3.10;;;;;;;;;;10455714;28;20031;-75
2022/04/05 17:00:14;;;;;;;6.20;2.57;;;;;;;;;;10490078;28;20028;-72
2022/04/05 17:05:14;;;;;;;10.30;3.17;;;;;;;;;;10454697;28;20258;-74
2022/04/05 17:10:15;;;;;;;4.93;2.50;;;;;;;;;;10503973;28;20023;-74
2022/04/05 17:15:19;;;;;;;11.20;3.20;;;;;;;;;;10531394;28;20024;-75
2022/04/05 17:20:19;;;;;;;11.57;4.45;;;;;;;;;;10512933;28;20020;-74
2022/04/05 17:25:19;;;;;;;16.70;5.43;;;;;;;;;;10531546;28;20016;-71
2022/04/05 17:30:20;;;;;;;284.63;71.35;;;;;;;;;;10512527;28;20302;-69
2022/04/05 17:35:20;;;;;;;150.23;38.43;;;;;;;;;;10472748;28;20016;-78
2022/04/05 17:40:20;;;;;;;22.75;7.18;;;;;;;;;;10470665;28;20186;-76
2022/04/05 17:45:21;;;;;;;21.98;7.55;;;;;;;;;;10470233;28;20045;-77
2022/04/05 17:50:21;;;;;;;20.13;8.27;;;;;;;;;;10488513;28;20048;-71
2022/04/05 17:55:23;;;;;;;15.60;6.35;;;;;;;;;;10469891;28;20024;-72
2022/04/05 18:00:23;;;;;;;12.75;5.03;;;;;;;;;;10469652;28;20415;-71
2022/04/05 18:05:28;;;;;;;29.35;10.55;;;;;;;;;;10470195;28;20124;-72
2022/04/05 18:10:28;;;;;;;16.90;5.88;;;;;;;;;;10479596;28;20063;-72
2022/04/05 18:15:30;;;;;;;11.27;5.17;;;;;;;;;;10511242;28;20111;-72
2022/04/05 18:20:30;;;;;;;12.30;6.47;;;;;;;;;;10479632;28;20037;-72
2022/04/05 18:25:31;;;;;;;12.10;5.63;;;;;;;;;;10484395;28;20016;-71
2022/04/05 18:30:31;;;;;;;11.63;5.60;;;;;;;;;;10537698;28;20024;-74
2022/04/05 18:35:31;;;;;;;18.02;6.43;;;;;;;;;;10518921;28;20034;-71
2022/04/05 18:40:33;;;;;;;18.08;5.25;;;;;;;;;;10489108;28;20028;-72
2022/04/05 18:45:34;;;;;;;22.98;6.60;;;;;;;;;;10493357;28;20068;-71
2022/04/05 18:50:34;;;;;;;23.83;6.93;;;;;;;;;;10512897;28;20024;-72
2022/04/05 18:55:34;;;;;;;16.93;6.37;;;;;;;;;;10518609;28;20031;-72
2022/04/05 19:00:35;;;;;;;17.10;6.80;;;;;;;;;;10536437;28;20039;-75
2022/04/05 19:05:35;;;;;;;16.48;6.07;;;;;;;;;;10537549;28;20397;-79
2022/04/05 19:10:36;;;;;;;16.13;7.20;;;;;;;;;;10517879;28;20035;-72
2022/04/05 19:15:36;;;;;;;14.60;6.40;;;;;;;;;;10534579;28;20039;-72
2022/04/05 19:20:36;;;;;;;17.93;8.40;;;;;;;;;;10517094;28;20274;-71
2022/04/05 19:25:37;;;;;;;12.10;6.72;;;;;;;;;;10483137;28;20020;-72
2022/04/05 19:30:37;;;;;;;18.20;6.80;;;;;;;;;;10474367;28;20032;-72
2022/04/05 19:35:38;;;;;;;16.17;8.40;;;;;;;;;;10475604;28;20461;-78
2022/04/05 19:40:38;;;;;;;12.20;7.47;;;;;;;;;;10522018;28;20016;-72
2022/04/05 19:45:39;;;;;;;14.48;7.68;;;;;;;;;;10520262;28;20481;-71
2022/04/05 19:50:39;;;;;;;18.77;8.68;;;;;;;;;;10474520;28;20051;-71
2022/04/05 19:55:39;;;;;;;16.40;7.15;;;;;;;;;;10474820;28;20029;-71
2022/04/05 20:00:40;;;;;;;29.40;7.95;;;;;;;;;;10474425;28;20021;-70
2022/04/05 20:05:40;;;;;;;21.93;7.50;;;;;;;;;;10474352;28;20607;-73
2022/04/05 20:10:40;;;;;;;16.87;6.23;;;;;;;;;;10474602;28;20029;-69
2022/04/05 20:15:41;;;;;;;17.93;6.50;;;;;;;;;;10473795;28;20077;-69
2022/04/05 20:20:41;;;;;;;13.05;7.18;;;;;;;;;;10473712;28;20692;-69
2022/04/05 20:25:42;;;;;;;16.80;7.90;;;;;;;;;;10489796;28;20017;-69
2022/04/05 20:30:43;;;;;;;13.95;6.93;;;;;;;;;;10473523;28;20020;-69
2022/04/05 20:35:43;;;;;;;17.80;7.65;;;;;;;;;;10473147;28;20486;-73
2022/04/05 20:40:44;;;;;;;16.50;7.90;;;;;;;;;;10472273;28;20452;-70
2022/04/05 20:45:44;;;;;;;17.90;6.82;;;;;;;;;;10455946;28;20044;-71
2022/04/05 20:50:45;;;;;;;10.93;6.47;;;;;;;;;;10456043;28;20035;-75
2022/04/05 20:55:45;;;;;;;20.23;6.35;;;;;;;;;;10472143;28;20259;-74
2022/04/05 21:00:46;;;;;;;13.13;6.75;;;;;;;;;;10471984;28;20074;-75
2022/04/05 21:05:46;;;;;;;11.52;6.10;;;;;;;;;;10472097;28;20367;-75
2022/04/05 21:10:47;;;;;;;13.93;5.83;;;;;;;;;;10490003;28;20483;-73
2022/04/05 21:15:47;;;;;;;8.50;5.47;;;;;;;;;;10472115;28;20020;-74
2022/04/05 21:20:47;;;;;;;6.15;4.18;;;;;;;;;;10471395;28;20362;-70
2022/04/05 21:25:48;;;;;;;10.40;5.05;;;;;;;;;;10471410;28;20496;-74
2022/04/05 21:30:48;;;;;;;12.90;4.57;;;;;;;;;;10471018;28;20027;-72
2022/04/05 21:35:48;;;;;;;9.10;4.50;;;;;;;;;;10470823;28;20024;-68
2022/04/05 21:40:49;;;;;;;11.15;4.80;;;;;;;;;;10470815;28;20055;-69
2022/04/05 21:45:49;;;;;;;14.48;4.97;;;;;;;;;;10470224;28;20044;-71
2022/04/05 21:50:49;;;;;;;7.18;4.32;;;;;;;;;;10470671;28;20040;-71
2022/04/05 21:55:50;;;;;;;10.38;5.20;;;;;;;;;;10470027;28;20037;-73
2022/04/05 22:00:53;;;;;;;10.07;4.03;;;;;;;;;;10488344;28;20016;-71
2022/04/05 22:05:54;;;;;;;12.40;5.50;;;;;;;;;;10470478;28;20266;-73
2022/04/05 22:10:54;;;;;;;9.70;4.53;;;;;;;;;;10470158;28;20073;-70
2022/04/05 22:15:54;;;;;;;18.07;6.10;;;;;;;;;;10469966;28;20417;-70
2022/04/05 22:20:55;;;;;;;10.20;5.93;;;;;;;;;;10470203;28;20402;-73
2022/04/05 22:25:55;;;;;;;11.70;4.70;;;;;;;;;;10469860;28;20020;-74
2022/04/05 22:30:56;;;;;;;12.00;5.72;;;;;;;;;;10453546;28;20020;-71
2022/04/05 22:35:56;;;;;;;9.32;4.47;;;;;;;;;;10488017;28;20490;-70
2022/04/05 22:40:57;;;;;;;9.50;5.15;;;;;;;;;;10487636;28;20085;-69
2022/04/05 22:45:57;;;;;;;8.52;5.70;;;;;;;;;;10469202;28;20060;-69
2022/04/05 22:50:58;;;;;;;11.13;5.47;;;;;;;;;;10469188;28;20025;-69
2022/04/05 22:55:59;;;;;;;9.00;5.32;;;;;;;;;;10470259;28;20588;-73
2022/04/05 23:00:59;;;;;;;9.35;5.82;;;;;;;;;;10485963;28;20071;-71
2022/04/05 23:05:59;;;;;;;14.35;6.25;;;;;;;;;;10490664;28;20495;-74
2022/04/05 23:11:00;;;;;;;8.60;5.77;;;;;;;;;;10477645;28;20020;-74
2022/04/05 23:16:00;;;;;;;8.33;5.67;;;;;;;;;;10476555;28;20567;-71
2022/04/05 23:21:00;;;;;;;9.10;5.10;;;;;;;;;;10476123;28;20024;-72
2022/04/05 23:26:01;;;;;;;9.25;5.30;;;;;;;;;;10494250;28;20066;-72
2022/04/05 23:31:01;;;;;;;14.68;5.97;;;;;;;;;;10488673;28;20027;-76
2022/04/05 23:36:01;;;;;;;15.32;6.05;;;;;;;;;;10492374;28;20505;-73
2022/04/05 23:41:02;;;;;;;9.63;5.73;;;;;;;;;;10476144;28;20024;-74
2022/04/05 23:46:02;;;;;;;11.87;6.17;;;;;;;;;;10493372;28;20173;-77
2022/04/05 23:51:04;;;;;;;8.82;6.00;;;;;;;;;;10475707;28;20056;-70
2022/04/05 23:56:05;;;;;;;10.45;5.88;;;;;;;;;;10474978;28;20478;-70
